Flight Track Log - Related Links

Times and Time Zones

All times are in EDT time to prevent confusion due to time zone crossing. See the N30483 flight status page for this flight to view local times or setup timezone preferences in your user account.

Time Position Orientation Groundspeed Altitude Reporting Facility
EDT Latitude Longitude Course Direction KTS MPH feet Rate Location/Type
Tue 12:53:01 PM 34.7994 -78.2528 38° Northeast 110 127 3,500  Level Washington Center
Tue 12:54:01 PM 34.8250 -78.2283 38° Northeast 109 125 3,500  Level Washington Center
Tue 12:55:02 PM 34.8464 -78.2039 43° Northeast 108 124 3,500  Level Washington Center
Tue 12:56:03 PM 34.8719 -78.1817 36° Northeast 111 128 3,500  Level Washington Center
Tue 12:57:03 PM 34.8914 -78.1572 46° Northeast 107 123 3,500  Level Washington Center
Tue 12:58:10 PM 34.9169 -78.1275 44° Northeast 110 127 3,500  Level Washington Center
Tue 12:59:11 PM 34.9447 -78.1031 36° Northeast 110 127 3,500  Level Washington Center
Tue 01:00:12 PM 34.9639 -78.0808 44° Northeast 103 119 3,500  Level Washington Center
Tue 01:01:14 PM 34.9894 -78.0589 35° Northeast 108 124 3,500  Level Washington Center
Tue 01:02:14 PM 35.0108 -78.0342 43° Northeast 107 123 3,500  Level Washington Center
Tue 01:03:09 PM 35.0319 -78.0119 41° Northeast 110 127 3,500  Level Washington Center
Tue 01:04:10 PM 35.0575 -77.9872 38° Northeast 111 128 3,500  Level Washington Center
Tue 01:05:11 PM 35.0808 -77.9678 34° Northeast 107 123 3,500  Level Washington Center
Tue 01:06:11 PM 35.1044 -77.9431 41° Northeast 109 125 3,500  Level Washington Center
Tue 01:07:09 PM 35.1297 -77.9233 33° Northeast 108 124 3,500  Level Washington Center
Tue 01:08:10 PM 35.1550 -77.9064 29° Northeast 105 121 3,500  Level Washington Center
Tue 01:09:11 PM 35.1786 -77.8842 38° Northeast 102 117 3,500  Level Washington Center
Tue 01:10:12 PM 35.2039 -77.8644 33° Northeast 106 122 3,500  Level Washington Center
Tue 01:11:12 PM 35.2294 -77.8422 35° Northeast 112 129 3,500  Level Washington Center
Tue 01:12:12 PM 35.2547 -77.8228 32° Northeast 106 122 3,500  Level Washington Center
Tue 01:13:13 PM 35.2783 -77.7981 41° Northeast 104 120 3,500  Level Washington Center
Tue 01:14:14 PM 35.3014 -77.7808 31° Northeast 107 123 3,500  Level Washington Center
Tue 01:15:15 PM 35.3289 -77.7586 33° Northeast 104 120 3,500  Level Washington Center
Tue 01:16:15 PM 35.3503 -77.7389 37° Northeast 105 121 3,500  Level Washington Center
Tue 01:17:16 PM 35.3756 -77.7192 32° Northeast 109 125 3,500  Level Washington Center
Tue 01:18:17 PM 35.4031 -77.6969 33° Northeast 111 128 3,500  Level Washington Center
Tue 01:19:17 PM 35.4283 -77.6797 29° Northeast 109 125 3,500  Level Washington Center
Tue 01:20:24 PM 35.4581 -77.6575 31° Northeast 104 120 3,500  Level Washington Center
Tue 01:21:24 PM 35.4833 -77.6378 32° Northeast 111 128 3,500  Level Washington Center
Tue 01:22:25 PM 35.5089 -77.6181 32° Northeast 112 129 3,500 -31 Level Washington Center
Tue 02:00:37 PM 36.5378 -76.8250 30° Northeast 118 136 2,300 -33 Descending Washington Center
Tue 02:01:00 PM 35.8417 -77.3477 35° Northeast  Level FlightAware Approximate
Tue 02:01:52 PM 36.5797 -76.8075 19° North 115 132 2,200  Level Washington Center
Tue 02:02:00 PM 35.8724 -77.3214 35° Northeast  Level FlightAware Approximate
Tue 02:02:53 PM 36.6108 -76.8106 355° North 115 132 2,300  Level Washington Center
Tue 02:03:00 PM 35.9044 -77.2979 28° Northeast  Level Estimated
Tue 02:03:53 PM 36.6444 -76.8033 10° North 119 137 2,200  Level Washington Center
Tue 02:04:00 PM 35.9369 -77.2751 30° Northeast  Level FlightAware Approximate
Tue 02:04:46 PM 36.6675 -76.7831 35° Northeast 121 139 2,100  Level Washington Center
Tue 02:05:00 PM 35.9693 -77.2522 30° Northeast  Level FlightAware Approximate
Tue 02:05:46 PM 36.6950 -76.7603 34° Northeast 116 133 2,300  Level Washington Center
Tue 02:06:48 PM 36.7222 -76.7347 37° Northeast 115 132 2,200  Descending Washington Center
Tue 02:07:48 PM 36.7475 -76.7117 36° Northeast 115 132 2,300 50 Climbing Washington Center
Tue 02:08:49 PM 36.7747 -76.6889 34° Northeast 112 129 2,300 98 Level Washington Center
Tue 02:09:50 PM 36.7981 -76.6658 38° Northeast 106 122 2,500 94 Climbing Washington Center
Tue 02:10:57 PM 36.8275 -76.6428 32° Northeast 114 131 2,500 48 Level Washington Center
Tue 02:11:54 PM 36.8525 -76.6250 30° Northeast 112 129 2,600 51 Climbing Washington Center
Tue 02:12:54 PM 36.8778 -76.6072 29° Northeast 117 135 2,600  Level Washington Center
Tue 02:13:54 PM 36.9050 -76.5814 37° Northeast 114 131 2,600  Level Washington Center
Tue 02:14:56 PM 36.9344 -76.5586 32° Northeast 118 136 2,600  Level Washington Center
Tue 02:15:57 PM 36.9619 -76.5356 34° Northeast 114 131 2,600  Level Washington Center
Tue 02:16:57 PM 36.9892 -76.5125 34° Northeast 114 131 2,600  Level Washington Center
Tue 02:17:55 PM 37.0164 -76.4892 34° Northeast 118 136 2,600  Level Washington Center
Tue 02:18:56 PM 37.0458 -76.4689 29° Northeast 116 133 2,600  Level Washington Center
Tue 02:20:00 PM 37.0708 -76.4508 30° Northeast 115 132 2,600  Level Washington Center
Tue 02:21:00 PM 37.0981 -76.4303 31° Northeast 117 135 2,600  Level Washington Center
Tue 02:22:17 PM 37.1381 -76.4022 29° Northeast 119 137 2,600  Level Washington Center
Tue 02:22:59 PM 37.1589 -76.3867 31° Northeast 119 137 2,600  Level Washington Center
Tue 02:24:00 PM 37.1842 -76.3661 33° Northeast 118 136 2,600  Level Washington Center
Tue 02:25:01 PM 37.2136 -76.3431 32° Northeast 119 137 2,600 179 Level Washington Center
Tue 02:26:14 PM 37.2469 -76.3144 34° Northeast 114 131 3,000 375 Climbing Washington Center
Tue 02:27:09 PM 37.2742 -76.2967 27° Northeast 115 132 3,400 259 Climbing Washington Center
Tue 02:28:10 PM 37.2994 -76.2758 33° Northeast 117 135 3,500 50 Climbing Washington Center
Tue 02:29:10 PM 37.3289 -76.2525 32° Northeast 118 136 3,500  Level Washington Center
Tue 02:30:17 PM 37.3603 -76.2294 30° Northeast 116 133 3,500  Level Washington Center
Tue 02:31:18 PM 37.3875 -76.2114 28° Northeast 116 133 3,500  Level Washington Center
Tue 02:33:00 PM 37.4588 -76.1337 32° Northeast  Level FlightAware Approximate
Tue 02:40:00 PM 37.7863 -75.8781 31° Northeast  Level FlightAware Approximate
Tue 02:41:00 PM 37.8332 -75.8418 31° Northeast  Level FlightAware Approximate
Tue 02:42:00 PM 37.8801 -75.8054 31° Northeast  Level FlightAware Approximate
Tue 02:43:00 PM 37.9270 -75.7690 31° Northeast  Level FlightAware Approximate
Tue 02:44:00 PM 37.9739 -75.7325 32° Northeast  Level FlightAware Approximate
Tue 02:45:00 PM 38.0208 -75.6960 32° Northeast  Level FlightAware Approximate
Tue 02:46:00 PM 38.0676 -75.6595 32° Northeast  Level FlightAware Approximate
Tue 02:47:00 PM 38.1145 -75.6228 32° Northeast  Level FlightAware Approximate
Tue 02:48:00 PM 38.1613 -75.5862 32° Northeast  Level FlightAware Approximate
Tue 02:49:00 PM 38.2082 -75.5495 32° Northeast  Level FlightAware Approximate
Tue 02:50:00 PM 38.2548 -75.5124 35° Northeast  Level FlightAware Approximate
Tue 02:51:00 PM 38.3001 -75.4726 35° Northeast  Level FlightAware Approximate
Tue 02:52:00 PM 38.3454 -75.4328 35° Northeast  Level FlightAware Approximate
Tue 02:53:00 PM 38.3906 -75.3929 35° Northeast  Level FlightAware Approximate
Tue 02:54:00 PM 38.4358 -75.3530 35° Northeast  Level FlightAware Approximate
Tue 02:55:00 PM 38.4811 -75.3130 35° Northeast  Level FlightAware Approximate
Tue 02:56:00 PM 38.5263 -75.2729 35° Northeast  Level FlightAware Approximate
Tue 02:57:00 PM 38.5736 -75.2371 30° Northeast  Level FlightAware Approximate
Tue 02:58:00 PM 38.6213 -75.2021 30° Northeast  Level FlightAware Approximate
Tue 02:59:00 PM 38.6690 -75.1670 30° Northeast  Level FlightAware Approximate
Tue 03:00:00 PM 38.7166 -75.1319 30° Northeast  Level FlightAware Approximate
Tue 03:01:00 PM 38.7643 -75.0967 30° Northeast  Level FlightAware Approximate
Tue 03:02:00 PM 38.8120 -75.0615 30° Northeast  Level FlightAware Approximate
Tue 03:03:00 PM 38.8588 -75.0246 38° Northeast  Level FlightAware Approximate
Tue 03:04:00 PM 38.9022 -74.9812 38° Northeast  Level FlightAware Approximate
Tue 03:05:00 PM 38.9468 -74.9399 30° Northeast  Level FlightAware Approximate
Tue 03:06:00 PM 38.9943 -74.9043 30° Northeast  Level FlightAware Approximate
Tue 03:07:00 PM 39.0085 -74.9086 30° Northeast  Level Estimated
Tue 03:08:00 PM 39.0085 -74.9086 30° Northeast  Level Estimated
Tue 03:09:00 PM 39.0085 -74.9086 142° Southeast  Level Estimated
Tue 03:10:00 PM 39.0085 -74.9086 30° Northeast  Level Estimated
Tue 03:11:00 PM 39.0085 -74.9086 142° Southeast  Level Estimated
Tue 03:12:00 PM 39.0085 -74.9086 30° Northeast  Level Estimated
Tue 03:13:00 PM 39.0085 -74.9086 142° Southeast  Level Estimated
Tue 03:14:00 PM 39.0085 -74.9086 30° Northeast  Level Estimated
Tue 03:15:00 PM 39.0085 -74.9086 142° Southeast  Level Estimated
Tue 03:16:00 PM 39.0085 -74.9086 30° Northeast  Level Estimated
Tue 03:17:00 PM 39.0085 -74.9086 142° Southeast  Level Estimated
Tue 03:18:00 PM 39.0085 -74.9086 30° Northeast  Level Estimated
Tue 03:19:00 PM 39.0085 -74.9086 142° Southeast  Level Estimated
Tue 03:20:00 PM 39.0085 -74.9086 30° Northeast  Level Estimated
Tue 03:21:00 PM 39.0085 -74.9086 142° Southeast  Level Estimated
Tue 03:22:00 PM 39.0085 -74.9086 30° Northeast  Level Estimated
Tue 03:23:00 PM 39.0085 -74.9086 142° Southeast  Level Estimated
Tue 03:24:00 PM 39.0085 -74.9086 30° Northeast  Level Estimated
Tue 03:25:00 PM 39.0085 -74.9086 142° Southeast  Level Estimated
Tue 03:26:00 PM 39.0085 -74.9086 30° Northeast  Level Estimated
Tue 03:27:00 PM 39.0085 -74.9086 142° Southeast  Level Estimated
Tue 03:28:00 PM 39.0085 -74.9086 30° Northeast  Level Estimated
Tue 03:29:00 PM 39.0085 -74.9086 142° Southeast  Level Estimated
Tue 03:30:00 PM 39.0085 -74.9086 30° Northeast  Level Estimated
Tue 03:31:00 PM 39.0085 -74.9086 142° Southeast  Level Estimated
Tue 03:32:00 PM 39.0085 -74.9086 30° Northeast  Level Estimated
Tue 03:33:00 PM 39.0085 -74.9086 142° Southeast  Level Estimated
Tue 03:34:00 PM 39.0085 -74.9086 30° Northeast  Level Estimated
Tue 03:35:00 PM 39.0085 -74.9086 142° Southeast  Level Estimated
Tue 03:36:00 PM 39.0085 -74.9086 30° Northeast  Level Estimated
Tue 03:37:00 PM 39.0085 -74.9086 142° Southeast  Level Estimated
Tue 03:38:00 PM 39.0085 -74.9086 30° Northeast  Level Estimated
Tue 03:39:00 PM 39.0085 -74.9086 142° Southeast  Level Estimated
Tue 03:40:00 PM 39.0085 -74.9086 30° Northeast  Level Estimated

Login

Don't have an account? Register now (free) for customized features, flight alerts, and more!